WAT615 KCMH-KJAX
Flight info
| Callsign | WAT615 |
|---|---|
| Flight time | N/A |
| Altitude | 39000 |
| Route | POBSE OHIOS SPA ALD ESENT LUNNI1 |
| Aircraft | A339/H-SADE1E2E3GHIJ3J5M1P2RWXY/LB2D1 |
Departure
| Time | 2026-05-06 10:33 |
|---|---|
| Airport | John Glenn Columbus International Airport (KCMH) |
Arrival
| Time | N/A |
|---|---|
| Airport | Jacksonville International Airport (KJAX) |
| Time | Latitude | Longitude | Altitude | Speed | Heading |
|---|---|---|---|---|---|
| 2026-05-06 10:10 | 39.99847 | -82.88180 | 819 ft | 0 kts | 184° |
| 2026-05-06 10:22 | 39.99859 | -82.88178 | 819 ft | 2 kts | 184° |
| 2026-05-06 10:22 | 39.99874 | -82.88177 | 819 ft | 2 kts | 184° |
| 2026-05-06 10:23 | 39.99889 | -82.88175 | 819 ft | 2 kts | 184° |
| 2026-05-06 10:23 | 39.99904 | -82.88174 | 819 ft | 2 kts | 184° |
| 2026-05-06 10:23 | 39.99919 | -82.88172 | 818 ft | 2 kts | 184° |
| 2026-05-06 10:23 | 39.99929 | -82.88171 | 818 ft | 1 kts | 184° |
| 2026-05-06 10:24 | 39.99943 | -82.88172 | 818 ft | 2 kts | 159° |
| 2026-05-06 10:24 | 39.99956 | -82.88182 | 818 ft | 2 kts | 136° |
| 2026-05-06 10:24 | 39.99965 | -82.88197 | 818 ft | 2 kts | 112° |
| 2026-05-06 10:24 | 39.99969 | -82.88211 | 819 ft | 0 kts | 96° |
| 2026-05-06 10:25 | 39.99969 | -82.88217 | 819 ft | 0 kts | 95° |
| 2026-05-06 10:26 | 39.99969 | -82.88208 | 819 ft | 2 kts | 92° |
| 2026-05-06 10:27 | 39.99968 | -82.88174 | 818 ft | 5 kts | 91° |
| 2026-05-06 10:27 | 39.99967 | -82.88113 | 817 ft | 8 kts | 91° |
| 2026-05-06 10:27 | 39.99965 | -82.88029 | 817 ft | 9 kts | 91° |
| 2026-05-06 10:27 | 39.99956 | -82.87942 | 816 ft | 9 kts | 114° |
| 2026-05-06 10:28 | 39.99901 | -82.87894 | 816 ft | 10 kts | 172° |
| 2026-05-06 10:28 | 39.99825 | -82.87896 | 817 ft | 10 kts | 184° |
| 2026-05-06 10:28 | 39.99750 | -82.87904 | 818 ft | 10 kts | 184° |
| 2026-05-06 10:28 | 39.99673 | -82.87910 | 819 ft | 11 kts | 184° |
| 2026-05-06 10:29 | 39.99603 | -82.87899 | 820 ft | 9 kts | 135° |
| 2026-05-06 10:29 | 39.99586 | -82.87806 | 819 ft | 11 kts | 100° |
| 2026-05-06 10:29 | 39.99572 | -82.87697 | 819 ft | 12 kts | 96° |
| 2026-05-06 10:29 | 39.99563 | -82.87575 | 818 ft | 13 kts | 94° |
| 2026-05-06 10:30 | 39.99556 | -82.87445 | 818 ft | 15 kts | 94° |
| 2026-05-06 10:30 | 39.99540 | -82.87317 | 817 ft | 12 kts | 125° |
| 2026-05-06 10:30 | 39.99461 | -82.87295 | 818 ft | 11 kts | 182° |
| 2026-05-06 10:30 | 39.99379 | -82.87302 | 819 ft | 11 kts | 187° |
| 2026-05-06 10:31 | 39.99296 | -82.87318 | 820 ft | 12 kts | 186° |
| 2026-05-06 10:31 | 39.99213 | -82.87331 | 820 ft | 11 kts | 200° |
| 2026-05-06 10:31 | 39.99171 | -82.87412 | 821 ft | 11 kts | 265° |
| 2026-05-06 10:31 | 39.99175 | -82.87517 | 821 ft | 12 kts | 273° |
| 2026-05-06 10:32 | 39.99188 | -82.87776 | 822 ft | 58 kts | 274° |
| 2026-05-06 10:32 | 39.99235 | -82.88593 | 822 ft | 118 kts | 274° |
| 2026-05-06 10:32 | 39.99305 | -82.89876 | 824 ft | 165 kts | 276° |
| 2026-05-06 10:32 | 39.99401 | -82.91419 | 1247 ft | 174 kts | 276° |
| 2026-05-06 10:33 | 39.99503 | -82.92984 | 1863 ft | 174 kts | 276° |
| 2026-05-06 10:33 | 39.99582 | -82.94542 | 2491 ft | 175 kts | 267° |
| 2026-05-06 10:33 | 39.99082 | -82.95986 | 2847 ft | 188 kts | 221° |
| 2026-05-06 10:33 | 39.97855 | -82.96718 | 3144 ft | 204 kts | 184° |
| 2026-05-06 10:34 | 39.96445 | -82.96313 | 3439 ft | 219 kts | 144° |
| 2026-05-06 10:34 | 39.95503 | -82.94749 | 3757 ft | 233 kts | 104° |
| 2026-05-06 10:34 | 39.95367 | -82.92587 | 4122 ft | 248 kts | 89° |
| 2026-05-06 10:34 | 39.95063 | -82.90332 | 4444 ft | 267 kts | 118° |
| 2026-05-06 10:35 | 39.93773 | -82.88586 | 4949 ft | 275 kts | 154° |
| 2026-05-06 10:35 | 39.91948 | -82.87826 | 5695 ft | 273 kts | 168° |
| 2026-05-06 10:35 | 39.90125 | -82.87212 | 6407 ft | 276 kts | 166° |
| 2026-05-06 10:35 | 39.88303 | -82.86469 | 7131 ft | 277 kts | 164° |
| 2026-05-06 10:36 | 39.86476 | -82.85596 | 7878 ft | 279 kts | 162° |
| 2026-05-06 10:36 | 39.84690 | -82.84657 | 8593 ft | 281 kts | 162° |
| 2026-05-06 10:36 | 39.82877 | -82.83651 | 9257 ft | 285 kts | 161° |
| 2026-05-06 10:36 | 39.81066 | -82.82612 | 9877 ft | 288 kts | 161° |
| 2026-05-06 10:37 | 39.79234 | -82.81548 | 10417 ft | 294 kts | 162° |
| 2026-05-06 10:37 | 39.77323 | -82.80435 | 10711 ft | 309 kts | 162° |
| 2026-05-06 10:37 | 39.75302 | -82.79251 | 11035 ft | 323 kts | 161° |
| 2026-05-06 10:37 | 39.73230 | -82.78027 | 11575 ft | 328 kts | 161° |
| 2026-05-06 10:38 | 39.71164 | -82.76797 | 12185 ft | 332 kts | 161° |
| 2026-05-06 10:38 | 39.69034 | -82.75528 | 12809 ft | 335 kts | 162° |
| 2026-05-06 10:38 | 39.66928 | -82.74277 | 13414 ft | 338 kts | 162° |
| 2026-05-06 10:38 | 39.64769 | -82.72996 | 14025 ft | 341 kts | 162° |
| 2026-05-06 10:39 | 39.62616 | -82.71722 | 14630 ft | 343 kts | 162° |
| 2026-05-06 10:39 | 39.60434 | -82.70427 | 15213 ft | 347 kts | 162° |
| 2026-05-06 10:39 | 39.58238 | -82.69126 | 15789 ft | 350 kts | 163° |
| 2026-05-06 10:39 | 39.56026 | -82.67818 | 16365 ft | 354 kts | 163° |
| 2026-05-06 10:40 | 39.53791 | -82.66498 | 16934 ft | 357 kts | 163° |
| 2026-05-06 10:40 | 39.51529 | -82.65163 | 17494 ft | 361 kts | 163° |
| 2026-05-06 10:40 | 39.49224 | -82.63804 | 18048 ft | 364 kts | 163° |
| 2026-05-06 10:40 | 39.46910 | -82.62504 | 18583 ft | 363 kts | 169° |
| 2026-05-06 10:41 | 39.44489 | -82.61739 | 19121 ft | 355 kts | 181° |
| 2026-05-06 10:41 | 39.42074 | -82.61603 | 19651 ft | 348 kts | 191° |
| 2026-05-06 10:41 | 39.39656 | -82.61823 | 20158 ft | 349 kts | 192° |
| 2026-05-06 10:41 | 39.37229 | -82.62083 | 20646 ft | 353 kts | 192° |
| 2026-05-06 10:42 | 39.34774 | -82.62347 | 21132 ft | 355 kts | 192° |
| 2026-05-06 10:42 | 39.32317 | -82.62607 | 21595 ft | 359 kts | 192° |
| 2026-05-06 10:42 | 39.29813 | -82.62868 | 22065 ft | 362 kts | 192° |
| 2026-05-06 10:42 | 39.27296 | -82.63128 | 22530 ft | 364 kts | 192° |
| 2026-05-06 10:43 | 39.24780 | -82.63385 | 22976 ft | 367 kts | 192° |
| 2026-05-06 10:43 | 39.22207 | -82.63648 | 23420 ft | 370 kts | 192° |
| 2026-05-06 10:43 | 39.19653 | -82.63907 | 23853 ft | 372 kts | 192° |
| 2026-05-06 10:44 | 39.14571 | -82.64421 | 24741 ft | 377 kts | 193° |
| 2026-05-06 10:44 | 39.11951 | -82.64686 | 25198 ft | 380 kts | 193° |
| 2026-05-06 10:44 | 39.09300 | -82.64953 | 25637 ft | 383 kts | 193° |
| 2026-05-06 10:44 | 39.06638 | -82.65222 | 26065 ft | 386 kts | 193° |
| 2026-05-06 10:45 | 39.03960 | -82.65492 | 26486 ft | 390 kts | 193° |
| 2026-05-06 10:45 | 39.01237 | -82.65767 | 26896 ft | 393 kts | 194° |
| 2026-05-06 10:45 | 38.98509 | -82.66041 | 27300 ft | 396 kts | 194° |
| 2026-05-06 10:45 | 38.95753 | -82.66318 | 27701 ft | 399 kts | 194° |
| 2026-05-06 10:46 | 38.92978 | -82.66602 | 28094 ft | 402 kts | 194° |
| 2026-05-06 10:46 | 38.90202 | -82.66880 | 28474 ft | 405 kts | 194° |
| 2026-05-06 10:46 | 38.87349 | -82.67162 | 28865 ft | 409 kts | 194° |
| 2026-05-06 10:46 | 38.84486 | -82.67306 | 29243 ft | 416 kts | 191° |
| 2026-05-06 10:47 | 38.81655 | -82.67239 | 29608 ft | 424 kts | 188° |
| 2026-05-06 10:47 | 38.78649 | -82.66959 | 29991 ft | 432 kts | 185° |
| 2026-05-06 10:47 | 38.75671 | -82.66450 | 30348 ft | 439 kts | 181° |
| 2026-05-06 10:47 | 38.72617 | -82.65816 | 30708 ft | 443 kts | 181° |
| 2026-05-06 10:48 | 38.69574 | -82.65174 | 31053 ft | 446 kts | 181° |
| 2026-05-06 10:48 | 38.66511 | -82.64526 | 31366 ft | 449 kts | 182° |
| 2026-05-06 10:48 | 38.63439 | -82.63888 | 31681 ft | 451 kts | 182° |
| 2026-05-06 10:48 | 38.60307 | -82.63243 | 31997 ft | 453 kts | 182° |
| 2026-05-06 10:49 | 38.57192 | -82.62602 | 32306 ft | 456 kts | 182° |
| 2026-05-06 10:49 | 38.54081 | -82.61961 | 32609 ft | 458 kts | 182° |
| 2026-05-06 10:49 | 38.50890 | -82.61303 | 32915 ft | 461 kts | 182° |
| 2026-05-06 10:49 | 38.47730 | -82.60651 | 33212 ft | 463 kts | 182° |
| 2026-05-06 10:50 | 38.44655 | -82.60016 | 33497 ft | 465 kts | 182° |
| 2026-05-06 10:50 | 38.41464 | -82.59358 | 33780 ft | 467 kts | 182° |
| 2026-05-06 10:50 | 38.38250 | -82.58695 | 34113 ft | 468 kts | 182° |
| 2026-05-06 10:50 | 38.35020 | -82.58025 | 34507 ft | 466 kts | 182° |
| 2026-05-06 10:51 | 38.31837 | -82.57364 | 34899 ft | 465 kts | 182° |
| 2026-05-06 10:51 | 38.28669 | -82.56708 | 35281 ft | 464 kts | 182° |
| 2026-05-06 10:51 | 38.25454 | -82.56043 | 35633 ft | 464 kts | 183° |
| 2026-05-06 10:51 | 38.22273 | -82.55389 | 35954 ft | 464 kts | 183° |
| 2026-05-06 10:52 | 38.19115 | -82.54741 | 36261 ft | 464 kts | 183° |
| 2026-05-06 10:52 | 38.15901 | -82.54082 | 36549 ft | 465 kts | 183° |
| 2026-05-06 10:52 | 38.12722 | -82.53429 | 36820 ft | 466 kts | 184° |
| 2026-05-06 10:52 | 38.09535 | -82.52781 | 37084 ft | 467 kts | 184° |
| 2026-05-06 10:53 | 38.06296 | -82.52125 | 37333 ft | 469 kts | 184° |
| 2026-05-06 10:53 | 38.03056 | -82.51464 | 37531 ft | 472 kts | 184° |
| 2026-05-06 10:53 | 37.99828 | -82.50799 | 37740 ft | 474 kts | 184° |
| 2026-05-06 10:53 | 37.96571 | -82.50134 | 37958 ft | 475 kts | 184° |
| 2026-05-06 10:54 | 37.93317 | -82.49471 | 38174 ft | 476 kts | 184° |
| 2026-05-06 10:54 | 37.90016 | -82.48793 | 38361 ft | 479 kts | 185° |
| 2026-05-06 10:54 | 37.86690 | -82.48114 | 38524 ft | 480 kts | 185° |
| 2026-05-06 10:54 | 37.83420 | -82.47459 | 38666 ft | 482 kts | 185° |
| 2026-05-06 10:55 | 37.80041 | -82.46774 | 38815 ft | 485 kts | 185° |
| 2026-05-06 10:55 | 37.73336 | -82.45422 | 38908 ft | 488 kts | 185° |
| 2026-05-06 10:56 | 37.66626 | -82.44064 | 38929 ft | 488 kts | 185° |
| 2026-05-06 10:56 | 37.59952 | -82.42706 | 38867 ft | 487 kts | 185° |
| 2026-05-06 10:57 | 37.54310 | -82.41572 | 38852 ft | 487 kts | 185° |